Time;durP1;ratioP1;P1;durP2;ratioP2;P2;SDS_P1;SDS_P2;PMS_P1;PMS_P2;Temp;Humidity;BMP_temperature;BMP_pressure;BME280_temperature;BME280_humidity;BME280_pressure;Samples;Min_cycle;Max_cycle;Signal;HPM_P1;HPM_P2
2022/04/15 00:00:08;;;;;;;4.05;2.20;;;;;;;;;;4962871;28;20073;-87
2022/04/15 00:02:34;;;;;;;3.58;2.40;;;;;;;;;;4965281;28;20047;-86
2022/04/15 00:04:59;;;;;;;3.88;2.20;;;;;;;;;;4965135;28;20039;-86
2022/04/15 00:07:25;;;;;;;3.75;2.63;;;;;;;;;;4968806;28;20451;-85
2022/04/15 00:09:51;;;;;;;4.28;2.03;;;;;;;;;;4986033;28;20030;-86
2022/04/15 00:12:27;;;;;;;3.90;2.50;;;;;;;;;;4973775;28;20038;-85
2022/04/15 00:14:54;;;;;;;3.40;2.42;;;;;;;;;;4987284;28;20042;-86
2022/04/15 00:17:20;;;;;;;3.30;2.22;;;;;;;;;;4979851;28;20042;-86
2022/04/15 00:19:47;;;;;;;5.57;2.17;;;;;;;;;;4982587;28;20043;-87
2022/04/15 00:22:13;;;;;;;3.05;2.20;;;;;;;;;;4965992;28;20073;-83
2022/04/15 00:24:38;;;;;;;3.55;2.22;;;;;;;;;;4969030;28;20110;-85
2022/04/15 00:27:04;;;;;;;2.33;1.83;;;;;;;;;;4964914;28;20046;-85
2022/04/15 00:29:29;;;;;;;3.78;2.08;;;;;;;;;;4979872;28;20480;-88
2022/04/15 00:31:55;;;;;;;3.33;2.10;;;;;;;;;;4968303;28;20038;-89
2022/04/15 00:34:21;;;;;;;3.35;2.03;;;;;;;;;;4986843;28;20030;-86
2022/04/15 00:36:46;;;;;;;2.97;2.03;;;;;;;;;;4967308;28;20051;-87
2022/04/15 00:39:11;;;;;;;4.47;2.30;;;;;;;;;;4964955;28;20384;-88
2022/04/15 00:41:40;;;;;;;3.55;2.13;;;;;;;;;;4982145;28;20395;-88
2022/04/15 00:44:06;;;;;;;3.53;2.50;;;;;;;;;;4966293;28;20035;-87
2022/04/15 00:46:31;;;;;;;3.85;2.88;;;;;;;;;;4984528;28;20026;-87
2022/04/15 00:48:57;;;;;;;3.17;2.25;;;;;;;;;;4985469;28;20379;-86
2022/04/15 00:51:22;;;;;;;5.72;2.95;;;;;;;;;;4967743;28;20117;-86
2022/04/15 00:53:58;;;;;;;5.78;3.10;;;;;;;;;;4985312;28;20042;-86
2022/04/15 00:56:27;;;;;;;5.20;2.83;;;;;;;;;;4984717;28;20053;-88
2022/04/15 00:58:53;;;;;;;4.30;2.65;;;;;;;;;;4968732;28;20491;-88
2022/04/15 01:01:18;;;;;;;5.07;2.50;;;;;;;;;;4985191;28;20498;-85
2022/04/15 01:03:44;;;;;;;3.78;2.33;;;;;;;;;;4985255;28;20034;-86
2022/04/15 01:06:11;;;;;;;9.95;2.75;;;;;;;;;;4982732;28;20034;-87
2022/04/15 01:08:39;;;;;;;6.10;2.88;;;;;;;;;;4967092;28;20074;-86
2022/04/15 01:11:06;;;;;;;7.07;4.05;;;;;;;;;;4981075;28;20041;-88
2022/04/15 01:13:35;;;;;;;5.38;2.55;;;;;;;;;;4968377;28;20086;-87
2022/04/15 01:16:01;;;;;;;3.47;2.40;;;;;;;;;;4969294;28;20043;-87
2022/04/15 01:18:27;;;;;;;5.07;2.70;;;;;;;;;;4984124;28;20041;-88
2022/04/15 01:20:53;;;;;;;7.95;2.45;;;;;;;;;;4961066;28;20563;-87
2022/04/15 01:23:19;;;;;;;3.00;1.90;;;;;;;;;;4962861;28;20042;-87
2022/04/15 01:25:45;;;;;;;4.13;2.28;;;;;;;;;;4971250;28;20048;-87
2022/04/15 01:28:11;;;;;;;3.42;2.08;;;;;;;;;;4964790;28;20039;-87
2022/04/15 01:30:37;;;;;;;4.50;2.25;;;;;;;;;;4969254;28;20054;-87
2022/04/15 01:33:03;;;;;;;3.67;2.00;;;;;;;;;;4965115;28;20027;-87
2022/04/15 01:35:29;;;;;;;4.35;2.53;;;;;;;;;;4971944;28;20042;-86
2022/04/15 01:37:56;;;;;;;4.47;2.35;;;;;;;;;;4971792;28;20078;-86
2022/04/15 01:40:22;;;;;;;2.55;1.80;;;;;;;;;;4968730;28;20399;-87
2022/04/15 01:42:48;;;;;;;3.55;1.95;;;;;;;;;;4990157;28;20041;-86
2022/04/15 01:45:14;;;;;;;3.53;2.17;;;;;;;;;;4985699;28;20045;-87
2022/04/15 01:47:39;;;;;;;4.15;2.05;;;;;;;;;;4977539;28;20034;-85
2022/04/15 01:50:07;;;;;;;3.30;2.15;;;;;;;;;;4972116;28;20053;-88
2022/04/15 01:52:33;;;;;;;5.05;2.30;;;;;;;;;;4974273;28;20078;-86
2022/04/15 01:54:59;;;;;;;4.57;2.10;;;;;;;;;;4985256;28;20038;-87
2022/04/15 01:57:24;;;;;;;4.05;2.67;;;;;;;;;;4972217;28;20048;-86
2022/04/15 01:59:50;;;;;;;3.40;2.40;;;;;;;;;;4970483;28;20822;-86
2022/04/15 02:02:15;;;;;;;3.35;2.33;;;;;;;;;;4974342;28;20042;-87
2022/04/15 02:04:41;;;;;;;3.40;1.92;;;;;;;;;;4978231;28;20034;-85
2022/04/15 02:07:07;;;;;;;3.70;2.03;;;;;;;;;;4974648;28;20052;-86
2022/04/15 02:09:32;;;;;;;3.78;2.33;;;;;;;;;;4987295;28;20559;-87
2022/04/15 02:11:58;;;;;;;3.53;2.10;;;;;;;;;;4974224;28;20034;-87
2022/04/15 02:14:24;;;;;;;2.78;1.75;;;;;;;;;;4968933;28;20035;-87
2022/04/15 02:16:52;;;;;;;3.53;2.47;;;;;;;;;;4966076;28;20034;-86
2022/04/15 02:19:17;;;;;;;5.78;2.20;;;;;;;;;;4972145;28;20045;-84
2022/04/15 02:21:45;;;;;;;3.85;2.30;;;;;;;;;;4984312;28;20065;-86
2022/04/15 02:24:11;;;;;;;5.38;2.17;;;;;;;;;;4973272;28;20062;-86
2022/04/15 02:26:37;;;;;;;5.00;2.42;;;;;;;;;;4981572;28;20038;-87
2022/04/15 02:29:02;;;;;;;3.42;2.20;;;;;;;;;;4969065;28;20031;-87
2022/04/15 02:31:28;;;;;;;4.22;2.53;;;;;;;;;;4986388;28;20073;-89
2022/04/15 02:33:53;;;;;;;4.45;2.70;;;;;;;;;;4973231;28;20078;-86
2022/04/15 02:36:19;;;;;;;3.20;2.05;;;;;;;;;;4967434;28;20048;-87
2022/04/15 02:38:44;;;;;;;3.97;2.20;;;;;;;;;;4987968;28;20385;-86
2022/04/15 02:41:10;;;;;;;2.65;1.80;;;;;;;;;;4970514;28;20034;-84
2022/04/15 02:43:38;;;;;;;4.45;2.15;;;;;;;;;;4974053;28;20380;-87
2022/04/15 02:46:06;;;;;;;3.58;2.13;;;;;;;;;;4966904;28;20046;-88
2022/04/15 02:48:32;;;;;;;3.88;2.15;;;;;;;;;;4971023;28;20037;-86
2022/04/15 02:50:59;;;;;;;2.88;2.03;;;;;;;;;;4988833;28;20038;-87
2022/04/15 02:53:25;;;;;;;2.75;2.08;;;;;;;;;;4988314;28;20034;-86
2022/04/15 02:55:50;;;;;;;3.83;2.28;;;;;;;;;;4968265;28;20100;-87
2022/04/15 02:58:16;;;;;;;3.10;2.13;;;;;;;;;;4967500;28;20438;-85
2022/04/15 03:00:41;;;;;;;2.45;1.55;;;;;;;;;;4972918;28;20423;-87
2022/04/15 03:03:07;;;;;;;5.30;2.30;;;;;;;;;;4968432;28;20467;-87
2022/04/15 03:05:32;;;;;;;2.67;1.70;;;;;;;;;;4987806;28;20049;-86
2022/04/15 03:07:58;;;;;;;2.85;1.77;;;;;;;;;;4987158;28;20902;-85
2022/04/15 03:10:24;;;;;;;2.47;1.80;;;;;;;;;;4965240;28;20057;-84
2022/04/15 03:12:49;;;;;;;3.58;1.52;;;;;;;;;;4966168;28;20062;-85
2022/04/15 03:15:15;;;;;;;3.33;2.15;;;;;;;;;;4984828;28;20026;-86
2022/04/15 03:17:41;;;;;;;3.13;1.80;;;;;;;;;;4983018;28;20402;-87
2022/04/15 03:20:08;;;;;;;3.45;1.80;;;;;;;;;;4967729;28;20045;-86
2022/04/15 03:22:39;;;;;;;7.80;1.70;;;;;;;;;;4971069;28;20050;-84
2022/04/15 03:25:06;;;;;;;4.18;2.13;;;;;;;;;;4969921;28;20125;-85
2022/04/15 03:27:32;;;;;;;2.63;1.80;;;;;;;;;;4970448;28;20035;-85
2022/04/15 03:29:57;;;;;;;6.72;1.90;;;;;;;;;;4988343;28;20049;-87
2022/04/15 03:32:26;;;;;;;3.83;2.22;;;;;;;;;;4987670;28;20038;-84
2022/04/15 03:34:53;;;;;;;3.17;2.13;;;;;;;;;;4966811;28;20047;-88
2022/04/15 03:37:18;;;;;;;2.70;2.00;;;;;;;;;;4989393;28;20479;-86
2022/04/15 03:39:44;;;;;;;3.90;1.85;;;;;;;;;;4973070;28;20046;-85
2022/04/15 03:42:09;;;;;;;3.67;2.00;;;;;;;;;;4967750;28;20062;-88
2022/04/15 03:44:36;;;;;;;3.70;1.83;;;;;;;;;;4989323;28;20426;-85
2022/04/15 03:47:02;;;;;;;2.90;2.15;;;;;;;;;;4985910;28;20093;-84
2022/04/15 03:49:28;;;;;;;1.75;1.50;;;;;;;;;;4968271;28;20079;-86
2022/04/15 03:51:53;;;;;;;4.03;2.33;;;;;;;;;;4972098;28;20042;-87
2022/04/15 03:54:18;;;;;;;5.18;2.25;;;;;;;;;;4986098;28;20031;-87
2022/04/15 03:56:46;;;;;;;3.25;2.03;;;;;;;;;;4985567;28;20073;-86
2022/04/15 03:59:12;;;;;;;3.40;2.03;;;;;;;;;;4962575;28;20635;-86
2022/04/15 04:01:38;;;;;;;4.47;1.67;;;;;;;;;;4970787;28;20030;-85
2022/04/15 04:04:04;;;;;;;6.50;2.72;;;;;;;;;;4972649;28;20138;-85
2022/04/15 04:06:29;;;;;;;4.35;2.08;;;;;;;;;;4969045;28;20027;-86
2022/04/15 04:08:55;;;;;;;3.28;1.83;;;;;;;;;;4987906;28;20104;-86
2022/04/15 04:11:21;;;;;;;5.10;2.50;;;;;;;;;;4989917;28;20034;-85
2022/04/15 04:13:47;;;;;;;2.83;1.83;;;;;;;;;;4987097;28;20427;-88
2022/04/15 04:16:12;;;;;;;4.97;2.50;;;;;;;;;;4986678;28;20244;-85
2022/04/15 04:18:41;;;;;;;2.90;2.25;;;;;;;;;;4984041;28;20039;-86
2022/04/15 04:21:07;;;;;;;5.93;2.20;;;;;;;;;;4973381;28;20033;-86
2022/04/15 04:23:33;;;;;;;5.35;2.05;;;;;;;;;;4969949;28;20125;-87
2022/04/15 04:25:59;;;;;;;4.18;1.85;;;;;;;;;;4967601;28;20034;-87
2022/04/15 04:28:25;;;;;;;3.33;2.25;;;;;;;;;;4974684;28;20046;-86
2022/04/15 04:30:52;;;;;;;4.80;1.90;;;;;;;;;;4994287;28;20039;-84
2022/04/15 04:33:18;;;;;;;2.65;1.88;;;;;;;;;;4970047;28;20496;-87
2022/04/15 04:35:43;;;;;;;4.22;1.90;;;;;;;;;;4965428;28;20130;-85
2022/04/15 04:38:08;;;;;;;2.40;1.70;;;;;;;;;;4961131;28;20125;-86
2022/04/15 04:40:34;;;;;;;3.42;1.90;;;;;;;;;;4963162;28;20483;-85
2022/04/15 04:43:01;;;;;;;4.18;1.83;;;;;;;;;;4981728;28;20039;-85
2022/04/15 04:45:27;;;;;;;3.53;1.67;;;;;;;;;;4988838;28;20042;-86
2022/04/15 04:47:54;;;;;;;2.33;1.48;;;;;;;;;;4967975;28;20552;-84
2022/04/15 04:50:19;;;;;;;2.83;2.00;;;;;;;;;;4966739;28;20037;-86
2022/04/15 04:52:46;;;;;;;3.92;1.80;;;;;;;;;;4984397;28;20395;-86
2022/04/15 04:55:13;;;;;;;2.78;1.63;;;;;;;;;;4968311;28;20041;-86
2022/04/15 04:57:39;;;;;;;3.13;1.83;;;;;;;;;;4981233;28;20030;-86
2022/04/15 05:00:07;;;;;;;2.75;1.88;;;;;;;;;;4968460;28;20066;-85
2022/04/15 05:02:32;;;;;;;4.95;2.58;;;;;;;;;;4988509;28;20095;-86
2022/04/15 05:04:58;;;;;;;3.03;2.20;;;;;;;;;;4972063;28;20038;-87
2022/04/15 05:07:24;;;;;;;3.90;2.38;;;;;;;;;;4981058;28;20122;-86
2022/04/15 05:09:49;;;;;;;9.90;2.63;;;;;;;;;;4968072;28;20037;-85
2022/04/15 05:12:15;;;;;;;4.38;3.33;;;;;;;;;;4967248;28;20038;-85
2022/04/15 05:14:40;;;;;;;9.68;5.43;;;;;;;;;;4970935;28;20125;-83
2022/04/15 05:17:06;;;;;;;3.70;3.17;;;;;;;;;;4988717;28;20038;-87
2022/04/15 05:19:32;;;;;;;4.20;2.72;;;;;;;;;;4971715;28;20514;-86
2022/04/15 05:21:57;;;;;;;3.58;2.53;;;;;;;;;;4963619;28;20035;-84
2022/04/15 05:24:23;;;;;;;4.90;2.47;;;;;;;;;;4980924;28;20116;-86
2022/04/15 05:26:48;;;;;;;5.28;2.50;;;;;;;;;;4967017;28;20145;-86
2022/04/15 05:29:14;;;;;;;4.03;2.60;;;;;;;;;;4969578;28;20062;-87
2022/04/15 05:31:39;;;;;;;5.60;3.15;;;;;;;;;;4986437;28;20038;-85
2022/04/15 05:34:05;;;;;;;4.13;3.00;;;;;;;;;;4969490;28;20037;-85
2022/04/15 05:36:31;;;;;;;4.03;2.83;;;;;;;;;;4966828;28;20530;-87
2022/04/15 05:38:56;;;;;;;4.22;3.58;;;;;;;;;;4977690;28;20047;-87
2022/04/15 05:41:22;;;;;;;6.18;3.40;;;;;;;;;;4988493;28;20109;-87
2022/04/15 05:43:51;;;;;;;7.13;3.88;;;;;;;;;;4960219;28;20057;-87
2022/04/15 05:46:18;;;;;;;8.35;4.68;;;;;;;;;;4984424;28;20038;-88
2022/04/15 05:48:43;;;;;;;8.77;4.85;;;;;;;;;;4965459;28;20039;-87
2022/04/15 05:51:09;;;;;;;14.07;6.82;;;;;;;;;;4981240;28;20162;-86
2022/04/15 05:53:35;;;;;;;23.45;9.52;;;;;;;;;;4966349;28;20081;-89
2022/04/15 05:56:00;;;;;;;23.48;10.80;;;;;;;;;;4965556;28;20399;-86
2022/04/15 05:58:28;;;;;;;17.73;10.52;;;;;;;;;;4969171;28;20050;-87
2022/04/15 06:00:56;;;;;;;17.38;8.68;;;;;;;;;;4965366;28;20532;-85
2022/04/15 06:03:22;;;;;;;14.07;8.45;;;;;;;;;;4983591;28;20038;-85
2022/04/15 06:05:48;;;;;;;16.98;8.70;;;;;;;;;;4956818;28;20105;-86
2022/04/15 06:08:16;;;;;;;15.52;10.23;;;;;;;;;;4982693;28;20514;-86
2022/04/15 06:10:42;;;;;;;18.80;9.32;;;;;;;;;;4967490;28;20042;-87
2022/04/15 06:13:14;;;;;;;15.95;8.32;;;;;;;;;;4958651;28;20035;-88
2022/04/15 06:15:51;;;;;;;16.27;8.38;;;;;;;;;;4988818;28;20038;-87
2022/04/15 06:18:18;;;;;;;17.58;7.47;;;;;;;;;;4966826;28;20503;-86
2022/04/15 06:20:44;;;;;;;12.98;6.93;;;;;;;;;;4964252;28;20431;-88
2022/04/15 06:23:10;;;;;;;18.02;8.90;;;;;;;;;;4989119;28;20038;-88
2022/04/15 06:25:35;;;;;;;15.15;7.97;;;;;;;;;;4972427;28;20062;-85
2022/04/15 06:28:01;;;;;;;15.30;7.15;;;;;;;;;;4972857;28;21424;-88
2022/04/15 06:30:27;;;;;;;13.20;6.72;;;;;;;;;;4989071;28;20030;-87
2022/04/15 06:32:53;;;;;;;16.95;7.95;;;;;;;;;;4974968;28;20387;-87
2022/04/15 06:35:18;;;;;;;10.50;7.22;;;;;;;;;;4973399;28;20084;-85
2022/04/15 06:37:44;;;;;;;14.60;8.38;;;;;;;;;;4971542;28;20227;-86
2022/04/15 06:40:11;;;;;;;18.10;8.20;;;;;;;;;;4988732;28;20138;-84
2022/04/15 06:42:37;;;;;;;11.13;7.93;;;;;;;;;;4982964;28;20116;-88
2022/04/15 06:45:04;;;;;;;10.18;7.30;;;;;;;;;;4975249;28;20479;-86
2022/04/15 06:47:29;;;;;;;18.50;7.68;;;;;;;;;;4966031;28;20038;-84
2022/04/15 06:49:55;;;;;;;12.60;6.38;;;;;;;;;;4991656;28;20042;-83
2022/04/15 06:52:20;;;;;;;11.45;6.85;;;;;;;;;;4989632;28;20042;-84
2022/04/15 06:54:46;;;;;;;15.75;9.25;;;;;;;;;;4991177;28;20394;-85
2022/04/15 06:57:12;;;;;;;17.02;10.40;;;;;;;;;;4973047;28;20154;-87
2022/04/15 06:59:38;;;;;;;16.10;9.18;;;;;;;;;;4976016;28;20109;-86
2022/04/15 07:02:04;;;;;;;18.02;9.80;;;;;;;;;;4966823;28;20030;-86
2022/04/15 07:04:32;;;;;;;15.45;8.57;;;;;;;;;;4991443;28;20045;-86
2022/04/15 07:06:58;;;;;;;33.63;16.08;;;;;;;;;;4986342;28;20035;-85
2022/04/15 07:09:23;;;;;;;14.65;7.50;;;;;;;;;;4988930;28;20035;-84
2022/04/15 07:11:49;;;;;;;17.35;9.23;;;;;;;;;;4975557;28;20041;-88
2022/04/15 07:14:15;;;;;;;19.70;10.00;;;;;;;;;;4977027;28;20402;-86
2022/04/15 07:16:40;;;;;;;16.20;8.48;;;;;;;;;;4988676;28;20034;-85
2022/04/15 07:19:07;;;;;;;17.10;8.80;;;;;;;;;;4965038;28;20027;-86
2022/04/15 07:21:36;;;;;;;13.23;7.03;;;;;;;;;;4988612;28;20467;-85
2022/04/15 07:24:03;;;;;;;10.32;6.50;;;;;;;;;;4987320;28;20061;-86
2022/04/15 07:26:29;;;;;;;11.52;6.82;;;;;;;;;;4967703;28;20030;-85
2022/04/15 07:28:54;;;;;;;16.98;6.97;;;;;;;;;;4968468;28;20411;-89
2022/04/15 07:31:20;;;;;;;12.52;7.25;;;;;;;;;;4974922;28;20030;-85
2022/04/15 07:33:48;;;;;;;16.25;8.00;;;;;;;;;;4978867;28;20034;-85
2022/04/15 07:38:58;;;;;;;14.80;7.30;;;;;;;;;;4979565;28;20090;-87
2022/04/15 07:41:24;;;;;;;15.85;9.40;;;;;;;;;;4985754;28;20026;-87
2022/04/15 07:43:49;;;;;;;10.55;6.57;;;;;;;;;;4962335;28;20506;-86
2022/04/15 07:46:16;;;;;;;11.30;6.75;;;;;;;;;;4965036;28;20070;-88
2022/04/15 07:48:41;;;;;;;15.45;7.13;;;;;;;;;;4989650;28;20038;-89
2022/04/15 07:51:08;;;;;;;14.57;6.40;;;;;;;;;;4972062;28;20033;-85
2022/04/15 07:53:33;;;;;;;8.13;4.95;;;;;;;;;;4974004;28;20038;-84
2022/04/15 07:55:58;;;;;;;10.05;5.00;;;;;;;;;;4986910;28;20030;-86
2022/04/15 07:58:24;;;;;;;9.57;5.68;;;;;;;;;;4962001;28;20095;-86
2022/04/15 08:00:49;;;;;;;7.43;4.72;;;;;;;;;;4991049;28;20519;-87
2022/04/15 08:03:17;;;;;;;6.75;4.60;;;;;;;;;;4985522;28;20529;-86
2022/04/15 08:05:43;;;;;;;6.97;4.85;;;;;;;;;;4966094;28;20104;-86
2022/04/15 08:08:09;;;;;;;10.05;4.65;;;;;;;;;;4966562;28;20045;-86
2022/04/15 08:10:34;;;;;;;8.02;3.90;;;;;;;;;;4972021;28;20057;-85
2022/04/15 08:13:02;;;;;;;5.45;3.45;;;;;;;;;;4985835;28;20117;-88
2022/04/15 08:15:29;;;;;;;8.80;4.45;;;;;;;;;;4968907;28;20417;-86
2022/04/15 08:17:54;;;;;;;5.30;3.70;;;;;;;;;;4980369;28;20038;-88
2022/04/15 08:20:20;;;;;;;6.50;3.55;;;;;;;;;;4990267;28;20085;-86
2022/04/15 08:22:45;;;;;;;6.97;4.07;;;;;;;;;;4981404;28;20046;-87
2022/04/15 08:25:12;;;;;;;10.05;3.67;;;;;;;;;;4974144;28;20046;-86
2022/04/15 08:27:37;;;;;;;7.45;4.07;;;;;;;;;;4966487;28;20541;-84
2022/04/15 08:30:04;;;;;;;9.25;4.13;;;;;;;;;;4968607;28;20043;-86
2022/04/15 08:32:33;;;;;;;5.65;3.72;;;;;;;;;;4977513;28;20035;-86
2022/04/15 08:35:00;;;;;;;10.13;3.72;;;;;;;;;;4989273;28;20454;-86
2022/04/15 08:37:26;;;;;;;6.25;3.50;;;;;;;;;;4992964;28;20069;-86
2022/04/15 08:39:53;;;;;;;10.95;3.45;;;;;;;;;;4969976;28;20059;-87
2022/04/15 08:42:20;;;;;;;8.63;4.20;;;;;;;;;;4985337;28;20031;-85
2022/04/15 08:44:49;;;;;;;6.57;4.18;;;;;;;;;;4986825;28;20097;-86
2022/04/15 08:47:14;;;;;;;5.47;3.77;;;;;;;;;;4968550;28;20088;-88
2022/04/15 08:49:40;;;;;;;7.97;4.38;;;;;;;;;;4976507;28;20501;-89
2022/04/15 08:52:09;;;;;;;8.63;4.13;;;;;;;;;;4973713;28;20070;-86
2022/04/15 08:54:35;;;;;;;8.20;5.20;;;;;;;;;;4964739;28;20479;-85
2022/04/15 08:57:00;;;;;;;6.57;3.92;;;;;;;;;;4963516;28;20046;-86
2022/04/15 08:59:26;;;;;;;7.70;4.15;;;;;;;;;;4960974;28;20038;-88
2022/04/15 09:01:51;;;;;;;7.32;4.25;;;;;;;;;;4970691;28;20034;-89
2022/04/15 09:04:20;;;;;;;7.07;4.25;;;;;;;;;;4985866;28;20042;-88
2022/04/15 09:06:53;;;;;;;7.25;4.10;;;;;;;;;;4970367;28;20463;-86
2022/04/15 09:09:19;;;;;;;5.45;3.63;;;;;;;;;;4961110;28;20551;-89
2022/04/15 09:11:48;;;;;;;8.68;4.03;;;;;;;;;;4980581;28;20110;-86
2022/04/15 09:14:14;;;;;;;8.10;4.40;;;;;;;;;;4969002;28;20534;-86
2022/04/15 09:16:48;;;;;;;7.68;4.00;;;;;;;;;;4983057;28;20269;-86
2022/04/15 09:19:15;;;;;;;6.00;3.78;;;;;;;;;;4968726;28;20038;-85
2022/04/15 09:21:48;;;;;;;9.30;4.47;;;;;;;;;;4988445;28;20042;-83
2022/04/15 09:24:14;;;;;;;9.63;3.80;;;;;;;;;;4967380;28;20062;-87
2022/04/15 09:26:44;;;;;;;5.32;3.85;;;;;;;;;;4966587;28;20073;-86
2022/04/15 09:29:11;;;;;;;7.90;4.20;;;;;;;;;;4971130;28;20038;-85
2022/04/15 09:31:37;;;;;;;7.25;4.20;;;;;;;;;;4984499;28;20043;-85
2022/04/15 09:34:06;;;;;;;6.40;4.05;;;;;;;;;;4971991;28;20034;-86
2022/04/15 09:36:33;;;;;;;7.28;3.90;;;;;;;;;;4990121;28;20415;-85
2022/04/15 09:39:16;;;;;;;6.25;4.10;;;;;;;;;;4985290;28;20045;-86
2022/04/15 09:41:55;;;;;;;8.70;4.38;;;;;;;;;;4968711;28;20514;-84
2022/04/15 09:44:22;;;;;;;8.55;4.13;;;;;;;;;;4982395;28;20097;-87
2022/04/15 09:46:51;;;;;;;8.98;3.63;;;;;;;;;;4982870;28;20122;-85
2022/04/15 09:49:16;;;;;;;6.80;3.73;;;;;;;;;;4967981;28;20035;-86
2022/04/15 09:51:44;;;;;;;11.68;4.57;;;;;;;;;;4971257;28;20268;-84
2022/04/15 09:54:31;;;;;;;9.02;3.85;;;;;;;;;;4966991;28;20034;-83
2022/04/15 09:56:58;;;;;;;4.30;3.22;;;;;;;;;;4984392;28;20392;-87
2022/04/15 09:59:26;;;;;;;7.40;4.85;;;;;;;;;;4969714;28;20482;-85
2022/04/15 10:01:57;;;;;;;8.57;3.97;;;;;;;;;;4985863;28;20430;-84
2022/04/15 10:04:27;;;;;;;7.32;3.60;;;;;;;;;;4974053;28;20037;-84
2022/04/15 10:06:54;;;;;;;4.15;3.10;;;;;;;;;;4990481;28;20038;-84
2022/04/15 10:09:21;;;;;;;9.05;2.95;;;;;;;;;;4989726;28;20033;-83
2022/04/15 10:11:50;;;;;;;5.50;3.33;;;;;;;;;;4973269;28;20543;-84
2022/04/15 10:14:19;;;;;;;6.03;3.25;;;;;;;;;;4972011;28;20042;-84
2022/04/15 10:16:44;;;;;;;6.00;3.67;;;;;;;;;;4990395;28;20134;-84
2022/04/15 10:19:11;;;;;;;5.50;3.25;;;;;;;;;;4987002;28;20027;-85
2022/04/15 10:21:42;;;;;;;5.88;3.75;;;;;;;;;;4972303;28;20133;-85
2022/04/15 10:24:09;;;;;;;6.38;3.30;;;;;;;;;;4974658;28;20030;-83
2022/04/15 10:26:45;;;;;;;5.32;3.38;;;;;;;;;;4988928;28;20510;-83
2022/04/15 10:29:12;;;;;;;9.98;3.20;;;;;;;;;;4967704;28;20038;-84
2022/04/15 10:31:46;;;;;;;5.50;3.90;;;;;;;;;;4974196;28;20057;-83
2022/04/15 10:34:16;;;;;;;6.72;3.10;;;;;;;;;;4968694;28;20506;-83
2022/04/15 10:36:47;;;;;;;5.55;3.25;;;;;;;;;;4971467;28;20053;-85
2022/04/15 10:39:21;;;;;;;8.05;3.58;;;;;;;;;;4972156;28;20062;-82
2022/04/15 10:41:48;;;;;;;14.07;3.58;;;;;;;;;;4984057;28;20035;-84
2022/04/15 10:44:25;;;;;;;5.90;3.47;;;;;;;;;;4969101;28;20391;-84
2022/04/15 10:46:50;;;;;;;7.75;3.58;;;;;;;;;;4973747;28;20038;-85
2022/04/15 10:49:21;;;;;;;6.05;3.30;;;;;;;;;;4971523;28;20047;-83
2022/04/15 10:51:51;;;;;;;7.72;3.40;;;;;;;;;;4975501;28;20039;-84
2022/04/15 10:54:35;;;;;;;6.53;3.85;;;;;;;;;;4991452;28;20037;-88
2022/04/15 10:57:15;;;;;;;6.88;3.92;;;;;;;;;;4994991;28;20487;-87
2022/04/15 11:02:46;;;;;;;5.93;4.10;;;;;;;;;;4992227;28;20444;-86
2022/04/15 11:05:15;;;;;;;11.40;3.90;;;;;;;;;;4972162;28;20097;-84
2022/04/15 11:07:42;;;;;;;5.95;3.40;;;;;;;;;;4975527;28;20093;-85
2022/04/15 11:10:59;;;;;;;6.97;3.70;;;;;;;;;;4989548;28;20480;-86
2022/04/15 11:13:40;;;;;;;4.95;3.10;;;;;;;;;;4955399;28;20087;-86
2022/04/15 11:16:15;;;;;;;5.05;3.45;;;;;;;;;;4968847;28;20035;-86
2022/04/15 11:18:52;;;;;;;7.15;3.72;;;;;;;;;;4967424;28;20046;-87
2022/04/15 11:21:22;;;;;;;6.95;3.35;;;;;;;;;;4992687;28;20039;-87
2022/04/15 11:23:53;;;;;;;8.50;3.83;;;;;;;;;;4972871;28;20098;-86
2022/04/15 11:26:24;;;;;;;7.75;3.90;;;;;;;;;;4974448;28;20040;-87
2022/04/15 11:28:51;;;;;;;7.50;3.85;;;;;;;;;;4975221;28;20533;-87
2022/04/15 11:31:29;;;;;;;6.05;3.58;;;;;;;;;;4967130;28;20031;-86
2022/04/15 11:34:02;;;;;;;4.28;3.30;;;;;;;;;;4976195;28;20041;-85
2022/04/15 11:36:30;;;;;;;6.72;3.13;;;;;;;;;;4976646;28;20045;-88
2022/04/15 11:38:59;;;;;;;6.43;3.63;;;;;;;;;;4976027;28;20127;-85
2022/04/15 11:41:28;;;;;;;6.47;3.00;;;;;;;;;;4974272;28;20576;-88
2022/04/15 11:43:56;;;;;;;5.45;3.17;;;;;;;;;;4973232;28;20419;-88
2022/04/15 11:46:23;;;;;;;6.55;3.75;;;;;;;;;;4992679;28;20034;-87
2022/04/15 11:48:50;;;;;;;7.03;3.25;;;;;;;;;;4976418;28;20038;-86
2022/04/15 11:51:23;;;;;;;4.55;3.30;;;;;;;;;;4976035;28;20058;-90
2022/04/15 11:58:14;;;;;;;5.10;3.00;;;;;;;;;;4878536;29;20522;-87
2022/04/15 12:01:09;;;;;;;5.82;3.53;;;;;;;;;;4917209;29;20036;-89
2022/04/15 12:04:07;;;;;;;6.32;3.25;;;;;;;;;;4901106;29;20406;-89
2022/04/15 12:09:30;;;;;;;9.95;3.95;;;;;;;;;;4890656;29;20052;-89
2022/04/15 12:12:30;;;;;;;6.28;3.17;;;;;;;;;;4901060;29;20054;-90
2022/04/15 12:14:57;;;;;;;;;;;;;;;;;;4949142;28;20037;-87
2022/04/15 12:17:28;;;;;;;10.05;3.47;;;;;;;;;;4967949;28;19914;-89
2022/04/15 12:20:01;;;;;;;9.25;5.00;;;;;;;;;;4973084;28;20031;-90
2022/04/15 12:22:32;;;;;;;7.25;3.25;;;;;;;;;;4968664;28;20042;-89
2022/04/15 12:25:20;;;;;;;6.18;3.33;;;;;;;;;;4990602;28;20376;-88
2022/04/15 12:27:47;;;;;;;4.95;3.15;;;;;;;;;;4989089;28;20043;-89
2022/04/15 12:30:16;;;;;;;5.03;3.00;;;;;;;;;;4987384;28;20035;-87
2022/04/15 12:32:42;;;;;;;;;;;;;;;;;;4973794;28;20057;-88
2022/04/15 12:35:12;;;;;;;9.57;3.63;;;;;;;;;;4970761;28;20293;-87
2022/04/15 12:37:44;;;;;;;4.70;3.20;;;;;;;;;;4990037;28;20030;-89
2022/04/15 12:40:09;;;;;;;7.05;2.92;;;;;;;;;;4988565;28;20026;-88
2022/04/15 12:42:37;;;;;;;5.18;3.13;;;;;;;;;;4967863;28;20050;-89
2022/04/15 12:45:09;;;;;;;7.85;3.20;;;;;;;;;;4969530;28;20036;-90
2022/04/15 12:47:37;;;;;;;5.07;3.00;;;;;;;;;;4984616;28;20450;-87
2022/04/15 12:50:19;;;;;;;4.75;3.13;;;;;;;;;;4983894;28;20057;-88
2022/04/15 12:52:45;;;;;;;6.15;3.53;;;;;;;;;;4973197;28;20026;-89
2022/04/15 12:55:11;;;;;;;8.50;3.35;;;;;;;;;;4988327;28;20041;-89
2022/04/15 12:57:41;;;;;;;7.63;3.55;;;;;;;;;;4967583;28;20037;-89
2022/04/15 13:00:10;;;;;;;5.72;3.63;;;;;;;;;;4971796;28;20058;-88
2022/04/15 13:02:36;;;;;;;4.13;3.08;;;;;;;;;;4972161;28;20039;-90
2022/04/15 13:05:03;;;;;;;7.15;3.30;;;;;;;;;;4971315;28;20113;-89
2022/04/15 13:07:29;;;;;;;6.93;3.00;;;;;;;;;;4967591;28;20100;-89
2022/04/15 13:09:54;;;;;;;6.07;3.30;;;;;;;;;;4988218;28;20026;-90
2022/04/15 13:12:20;;;;;;;7.47;3.03;;;;;;;;;;4986300;28;20038;-89
2022/04/15 13:14:46;;;;;;;7.82;2.83;;;;;;;;;;4969260;28;20066;-90
2022/04/15 13:17:15;;;;;;;4.97;3.05;;;;;;;;;;4989170;28;20042;-89
2022/04/15 13:19:43;;;;;;;8.50;3.45;;;;;;;;;;4966866;28;20553;-89
2022/04/15 13:22:09;;;;;;;12.63;6.05;;;;;;;;;;4973157;28;20034;-89
2022/04/15 13:24:36;;;;;;;7.80;3.28;;;;;;;;;;4983762;28;20493;-90
2022/04/15 13:27:02;;;;;;;9.85;4.07;;;;;;;;;;4987488;28;20039;-90
2022/04/15 13:29:27;;;;;;;8.25;3.08;;;;;;;;;;4982952;28;20033;-88
2022/04/15 13:31:53;;;;;;;9.10;3.78;;;;;;;;;;4992901;28;20044;-88
2022/04/15 13:34:20;;;;;;;7.72;3.20;;;;;;;;;;4989391;28;20082;-92
2022/04/15 13:36:46;;;;;;;6.07;3.47;;;;;;;;;;4989713;28;20046;-88
2022/04/15 13:39:12;;;;;;;6.75;3.78;;;;;;;;;;4989513;28;20034;-92
2022/04/15 13:41:37;;;;;;;5.93;3.50;;;;;;;;;;4989909;28;20053;-89
2022/04/15 13:44:03;;;;;;;10.13;3.85;;;;;;;;;;4988870;28;20399;-89
2022/04/15 13:46:28;;;;;;;6.88;4.22;;;;;;;;;;4972412;28;20041;-90
2022/04/15 13:48:54;;;;;;;8.23;3.08;;;;;;;;;;4988448;28;20034;-91
2022/04/15 13:51:22;;;;;;;7.88;3.17;;;;;;;;;;4973071;28;20414;-89
2022/04/15 13:56:35;;;;;;;5.95;3.40;;;;;;;;;;4991266;28;20082;-89
2022/04/15 13:59:05;;;;;;;7.80;3.35;;;;;;;;;;4967734;28;20038;-90
2022/04/15 14:01:48;;;;;;;11.98;3.70;;;;;;;;;;4968087;28;20047;-90
2022/04/15 14:04:28;;;;;;;6.25;3.63;;;;;;;;;;4988594;28;20442;-90
2022/04/15 14:06:54;;;;;;;7.60;3.78;;;;;;;;;;4974857;28;20117;-90
2022/04/15 14:09:20;;;;;;;6.35;3.08;;;;;;;;;;4973220;28;20113;-92
2022/04/15 14:11:48;;;;;;;9.23;3.55;;;;;;;;;;4972545;28;20120;-91
2022/04/15 14:14:15;;;;;;;6.45;4.18;;;;;;;;;;4974204;28;20039;-90
2022/04/15 14:16:42;;;;;;;4.75;3.20;;;;;;;;;;4973527;28;20386;-89
2022/04/15 14:19:11;;;;;;;6.93;3.50;;;;;;;;;;4988445;28;20038;-92
2022/04/15 14:21:41;;;;;;;10.57;4.10;;;;;;;;;;4971543;28;20051;-90
2022/04/15 14:24:09;;;;;;;;;;;;;;;;;;4990082;28;20037;-87
2022/04/15 14:26:35;;;;;;;8.27;3.75;;;;;;;;;;4992665;28;19913;-89
2022/04/15 14:29:01;;;;;;;5.15;3.40;;;;;;;;;;4973547;28;20030;-89
2022/04/15 14:31:28;;;;;;;11.23;4.43;;;;;;;;;;4985619;28;20109;-90
2022/04/15 14:33:53;;;;;;;8.95;4.28;;;;;;;;;;4969765;28;20042;-90
2022/04/15 14:36:19;;;;;;;11.02;4.13;;;;;;;;;;4987882;28;20038;-91
2022/04/15 14:38:45;;;;;;;5.13;3.55;;;;;;;;;;4979421;28;20042;-91
2022/04/15 14:41:10;;;;;;;5.28;3.80;;;;;;;;;;4988539;28;20442;-91
2022/04/15 14:44:07;;;;;;;8.70;4.22;;;;;;;;;;4988184;28;20069;-90
2022/04/15 14:46:44;;;;;;;10.27;4.05;;;;;;;;;;4967579;28;20041;-91
2022/04/15 14:49:25;;;;;;;;;;;;;;;;;;;;;
2022/04/15 14:51:54;;;;;;;7.35;3.67;;;;;;;;;;4929879;29;20411;-92
2022/04/15 14:54:20;;;;;;;7.95;4.63;;;;;;;;;;4917026;29;20043;-92
2022/04/15 14:56:48;;;;;;;8.75;3.80;;;;;;;;;;4931729;29;20049;-91
2022/04/15 14:59:14;;;;;;;6.90;3.95;;;;;;;;;;4935428;29;20500;-90
2022/04/15 15:01:40;;;;;;;6.82;3.80;;;;;;;;;;4933741;29;20239;-90